Etusivu
METAR-TAF:

METAR-TAF

Lentoasemat :

Oxford, Englanti

Leveyspiiri: 51-50-13N, Pituuspiiri: 1-19-12W, korkeus merenpinnasta: 82 m

Tämänhetkinen sää

Tämä raportti tehtiin 6 tuntia ja 3 minuuttia sitten, kello 22.20 UTC
Tuuli 4 kn lännestä/lounaasta
Lämpötila 7°C
Kosteus 93%
Ilmanpaine 1023 hPa
Näkyvyys 10 km tai enemmän
Hajanaisia pilviä 3600 ft:n korkeudessa

METAR: EGTK 182220Z 24004KT 9999 SCT036 07/06 Q1023

Aika: 04:23 (04:23 UTC)

Sääennuste

Tämä raportti tehtiin 8 tuntia ja 24 minuuttia sitten, kello 19.59 UTC
Ennuste voimassa 18. päivästä klo 21 UTC - 18. päivään klo 23 UTC
Tuuli 6 kn lännestä/lounaasta
Näkyvyys 10 km tai enemmän
Hajanaisia pilviä 3500 ft:n korkeudessa
Ajoittain
18. päivästä klo 21 UTC - 18. päivään klo 23 UTC
Näkyvyys: 7000 m

TAF: EGTK 181959Z 1821/1823 25006KT 9999 SCT035 TEMPO 1821/1823 7000

Säähavainnot ja -ennusteet yli 4000 lentoasemalta (METAR- ja TAF-raportit).

Käytössä olevat sääasemat on merkitty karttaan keltaisilla ja punaisilla pisteillä.

Aseta hiiri pisteen päälle nähdäksesi sääaseman nimen.

Klikkaa sitten nähdäksesi säähavainnot ja -ennusteet.

Kartan vaihtaminen: klikkaa mustalla rastilla varustettuja vihreitä pisteitä, niin voit zoomata sisään; viivalla varustettua vihreää pistettä, niin voit zoomata ulos tai vihreitä nuolia, niin pääset viereisille kartoille.


METAR-TAF: